Погода Наифаруна неделю

Дансай, Таиланд

28 февраля-05 марта
  • 28февраля
    Сегодня
    +24°
    +35°
    Небольшая облачность
    ВремяПогодаТемператураВлажностьДавлениеВетер, м/сВероятность осадков
    01:00Ясно и безоблачно+26°C66 %746 мм1.8 м/с2 %
    04:00Ясно и безоблачно+24°C68 %746 мм3.3 м/с2 %
    07:00Ясно и безоблачно+23°C72 %747 мм2.9 м/с2 %
    10:00Ясно и безоблачно+30°C55 %748 мм2.4 м/с2 %
    13:00Небольшая облачность+34°C44 %745 мм1.6 м/с2 %
    16:00Практически безоблачно+35°C42 %744 мм0.8 м/с12 %
    19:00Ясно и безоблачно+30°C52 %744 мм0.8 м/с3 %
    22:00Ясно и безоблачно+29°C59 %745 мм2.3 м/с2 %
  • 29февраля
    Четверг
    +25°
    +36°
    Ясно и безоблачно
    ВремяПогодаТемператураВлажностьДавлениеВетер, м/сВероятность осадков
    01:00Ясно и безоблачно+27°C64 %745 мм1.8 м/с2 %
    04:00Ясно и безоблачно+25°C74 %745 мм1.6 м/с2 %
    07:00Ясно и безоблачно+25°C80 %746 мм0.2 м/с2 %
    10:00Ясно и безоблачно+32°C47 %748 мм2.7 м/с2 %
    13:00Ясно и безоблачно+35°C39 %746 мм1.9 м/с8 %
    16:00Ясно и безоблачно+36°C35 %744 мм1.6 м/с6 %
    19:00Ясно и безоблачно+32°C44 %745 мм1.8 м/с3 %
    22:00Ясно и безоблачно+30°C53 %746 мм1.9 м/с2 %
  • 01марта
    Пятница
    +22°
    +36°
    Облачно с прояснениями
    ВремяПогодаТемператураВлажностьДавлениеВетер, м/сВероятность осадков
    01:00Ясно и безоблачно+28°C60 %746 мм1.7 м/с2 %
    04:00Небольшая облачность+26°C66 %745 мм1.9 м/с1 %
    07:00Ясно и безоблачно+25°C67 %747 мм3.6 м/с2 %
    10:00Ясно и безоблачно+30°C53 %749 мм3.7 м/с2 %
    13:00Облачно с прояснениями+35°C40 %746 мм2.6 м/с4 %
    16:00Небольшая облачность+35°C37 %744 мм2.5 м/с3 %
    19:00Ясно и безоблачно+31°C46 %745 мм2.1 м/с2 %
    22:00Ясно и безоблачно+30°C50 %746 мм2.7 м/с2 %
  • 02марта
    Суббота
    +23°
    +34°
    Ясно и безоблачно
    ВремяПогодаТемператураВлажностьДавлениеВетер, м/сВероятность осадков
    01:00Ясно и безоблачно+27°C57 %746 мм5.0 м/с4 %
    04:00Ясно и безоблачно+25°C64 %746 мм3.7 м/с3 %
    07:00Ясно и безоблачно+23°C67 %748 мм4.1 м/с2 %
    10:00Практически безоблачно+28°C53 %749 мм3.2 м/с4 %
    13:00Ясно и безоблачно+32°C44 %747 мм2.2 м/с2 %
    16:00Ясно и безоблачно+34°C41 %745 мм2.1 м/с2 %
    19:00Ясно и безоблачно+30°C48 %745 мм1.9 м/с2 %
    22:00Ясно и безоблачно+29°C54 %747 мм2.5 м/с2 %
  • 03марта
    Воскресенье
    +24°
    +35°
    Ясно и безоблачно
    ВремяПогодаТемператураВлажностьДавлениеВетер, м/сВероятность осадков
    01:00Ясно и безоблачно+28°C57 %746 мм4.1 м/с2 %
    04:00Ясно и безоблачно+25°C63 %746 мм2.1 м/с2 %
    07:00Ясно и безоблачно+23°C66 %747 мм3.0 м/с2 %
    10:00Ясно и безоблачно+29°C51 %748 мм2.4 м/с2 %
    13:00Ясно и безоблачно+34°C41 %746 мм1.4 м/с2 %
    16:00Ясно и безоблачно+34°C38 %743 мм0.8 м/с3 %
    19:00Ясно и безоблачно+31°C48 %743 мм1.6 м/с4 %
    22:00Ясно и безоблачно+29°C58 %745 мм1.7 м/с2 %
Мы используем cookies
Соглашаюсь